PWSweather.com
Personal Weather Stations
Station Observations
SEVANL01
SevillaES 41004

SevillaES 41004

Lat: 37.383633, Lon: -5.985787

Elevation: 19.685

Station Type: Davis Vantage Pro2

Latest ConditionsUpdated 10:20:00 AM GMT+01:01 Saturday, Sep 23, 2017
Currently Today's Max Today's Min Today's Average
Temperature 74.8°F23.8°C 74.8°F23.8°C 66.9°F19.4°C 70.1°F21.2°C
Dew Point 60.4°F15.8°C 60.4°F15.8°C 54.0°F12.2°C 56.7°F13.7°C
Winds 3.8 mph NNE6.1 kmh NNE 4.6 mph NE7.4 kmh NE - 2.7 mph 4.3 kmh
Wind Gusts 7.0 mph11.3 kmh 11.0 mph17.7 kmh - -
Humidity 61% 67% 57% 63%
Pressure 30.05 in1017.6 mb 30.05 in1017.6 mb 29.99 in1015.6 mb -
Hour Temp Dew Point Humidity Winds Wind Gusts Pressure Precip Precip Rate Daily Precip Total
10:20 AM 74.8°F23.8°C 60.4°F15.8°C 61% 3.8 mph NNE6.1 kmh NNE 7.0 mph11.3 kmh 30.05 in1017.6 mb 0.00 in0.0 mm 0.00 in0.0 mm 0.00 in0.0 mm
10:00 AM 73.8°F23.2°C 59.5°F15.3°C 61% 3.2 mph NE5.1 kmh NE 9.0 mph14.5 kmh 30.05 in1017.6 mb 0.00 in0.0 mm 0.00 in0.0 mm 0.00 in0.0 mm
09:40 AM 72.6°F22.6°C 57.9°F14.4°C 60% 3.8 mph NE6.1 kmh NE 9.0 mph14.5 kmh 30.04 in1017.3 mb 0.00 in0.0 mm 0.00 in0.0 mm 0.00 in0.0 mm
09:20 AM 71.2°F21.8°C 57.5°F14.2°C 62% 4.4 mph NE7.1 kmh NE 10.0 mph16.1 kmh 30.04 in1017.3 mb 0.00 in0.0 mm 0.00 in0.0 mm 0.00 in0.0 mm
09:00 AM 70.1°F21.2°C 57.4°F14.1°C 64% 4.6 mph NE7.4 kmh NE 11.0 mph17.7 kmh 30.04 in1017.3 mb 0.00 in0.0 mm 0.00 in0.0 mm 0.00 in0.0 mm
08:40 AM 69.0°F20.6°C 57.2°F14.0°C 66% 3.9 mph NE6.3 kmh NE 9.0 mph14.5 kmh 30.03 in1016.9 mb 0.00 in0.0 mm 0.00 in0.0 mm 0.00 in0.0 mm
08:20 AM 68.0°F20.0°C 56.2°F13.4°C 66% 4.0 mph NE6.4 kmh NE 9.0 mph14.5 kmh 30.03 in1016.9 mb 0.00 in0.0 mm 0.00 in0.0 mm 0.00 in0.0 mm
08:00 AM 67.2°F19.6°C 55.5°F13.1°C 66% 3.8 mph NE6.1 kmh NE 9.0 mph14.5 kmh 30.02 in1016.6 mb 0.00 in0.0 mm 0.00 in0.0 mm 0.00 in0.0 mm
07:40 AM 66.9°F19.4°C 55.6°F13.1°C 67% 4.0 mph NE6.4 kmh NE 6.0 mph9.7 kmh 30.02 in1016.6 mb 0.00 in0.0 mm 0.00 in0.0 mm 0.00 in0.0 mm
07:20 AM 67.0°F19.4°C 55.3°F12.9°C 66% 3.7 mph NE6.0 kmh NE 9.0 mph14.5 kmh 30.02 in1016.6 mb 0.00 in0.0 mm 0.00 in0.0 mm 0.00 in0.0 mm
07:00 AM 67.2°F19.6°C 55.9°F13.3°C 67% 3.1 mph NE5.0 kmh NE 7.0 mph11.3 kmh 30.02 in1016.6 mb 0.00 in0.0 mm 0.00 in0.0 mm 0.00 in0.0 mm
06:40 AM 67.6°F19.8°C 56.2°F13.4°C 67% 3.4 mph NE5.5 kmh NE 6.0 mph9.7 kmh 30.01 in1016.3 mb 0.00 in0.0 mm 0.00 in0.0 mm 0.00 in0.0 mm
06:20 AM 67.9°F19.9°C 56.1°F13.4°C 66% 3.0 mph NE4.8 kmh NE 5.0 mph8.0 kmh 30.00 in1015.9 mb 0.00 in0.0 mm 0.00 in0.0 mm 0.00 in0.0 mm
06:00 AM 67.9°F19.9°C 55.7°F13.2°C 65% 3.6 mph ENE5.8 kmh ENE 5.0 mph8.0 kmh 29.99 in1015.6 mb 0.00 in0.0 mm 0.00 in0.0 mm 0.00 in0.0 mm
05:40 AM 68.1°F20.1°C 54.6°F12.6°C 62% 2.1 mph ENE3.4 kmh ENE 4.0 mph6.4 kmh 30.00 in1015.9 mb 0.00 in0.0 mm 0.00 in0.0 mm 0.00 in0.0 mm
05:20 AM 68.4°F20.2°C 54.0°F12.2°C 60% 2.6 mph ENE4.2 kmh ENE 7.0 mph11.3 kmh 30.00 in1015.9 mb 0.00 in0.0 mm 0.00 in0.0 mm 0.00 in0.0 mm
05:00 AM 69.4°F20.8°C 54.4°F12.4°C 59% 3.1 mph NE5.0 kmh NE 6.0 mph9.7 kmh 30.00 in1015.9 mb 0.00 in0.0 mm 0.00 in0.0 mm 0.00 in0.0 mm
04:40 AM 69.5°F20.8°C 55.0°F12.8°C 60% 2.5 mph NNE4.0 kmh NNE 5.0 mph8.0 kmh 30.00 in1015.9 mb 0.00 in0.0 mm 0.00 in0.0 mm 0.00 in0.0 mm
04:20 AM 69.0°F20.6°C 55.0°F12.8°C 61% 4.0 mph NNE6.4 kmh NNE 8.0 mph12.9 kmh 29.99 in1015.6 mb 0.00 in0.0 mm 0.00 in0.0 mm 0.00 in0.0 mm
04:00 AM 69.7°F20.9°C 57.4°F14.1°C 65% 3.0 mph NNW4.8 kmh NNW 6.0 mph9.7 kmh 30.00 in1015.9 mb 0.00 in0.0 mm 0.00 in0.0 mm 0.00 in0.0 mm
03:40 AM 71.3°F21.8°C 58.9°F14.9°C 65% 2.0 mph N3.2 kmh N 4.0 mph6.4 kmh 30.00 in1015.9 mb 0.00 in0.0 mm 0.00 in0.0 mm 0.00 in0.0 mm
03:20 AM 71.1°F21.7°C 58.7°F14.8°C 65% Calm Calm 2.0 mph3.2 kmh 30.00 in1015.9 mb 0.00 in0.0 mm 0.00 in0.0 mm 0.00 in0.0 mm
03:00 AM 71.0°F21.7°C 58.2°F14.6°C 64% 0.2 mph SW0.3 kmh SW 1.0 mph1.6 kmh 30.00 in1015.9 mb 0.00 in0.0 mm 0.00 in0.0 mm 0.00 in0.0 mm
02:40 AM 71.1°F21.7°C 57.9°F14.4°C 63% Calm Calm 1.0 mph1.6 kmh 30.00 in1015.9 mb 0.00 in0.0 mm 0.00 in0.0 mm 0.00 in0.0 mm
02:20 AM 70.9°F21.6°C 57.7°F14.3°C 63% 1.0 mph SW1.6 kmh SW 3.0 mph4.8 kmh 30.01 in1016.3 mb 0.00 in0.0 mm 0.00 in0.0 mm 0.00 in0.0 mm
02:00 AM 71.3°F21.8°C 57.6°F14.2°C 62% 1.0 mph WSW1.6 kmh WSW 3.0 mph4.8 kmh 30.01 in1016.3 mb 0.00 in0.0 mm 0.00 in0.0 mm 0.00 in0.0 mm
01:40 AM 71.5°F21.9°C 57.3°F14.1°C 61% 1.1 mph SW1.8 kmh SW 2.0 mph3.2 kmh 30.01 in1016.3 mb 0.00 in0.0 mm 0.00 in0.0 mm 0.00 in0.0 mm
01:20 AM 71.8°F22.1°C 56.7°F13.7°C 59% 1.5 mph SW2.4 kmh SW 4.0 mph6.4 kmh 30.01 in1016.3 mb 0.00 in0.0 mm 0.00 in0.0 mm 0.00 in0.0 mm
01:00 AM 71.9°F22.2°C 56.3°F13.5°C 58% 2.0 mph WSW3.2 kmh WSW 4.0 mph6.4 kmh 30.00 in1015.9 mb 0.00 in0.0 mm 0.00 in0.0 mm 0.00 in0.0 mm
12:40 AM 72.2°F22.3°C 56.1°F13.4°C 57% 2.8 mph SW4.5 kmh SW 4.0 mph6.4 kmh 30.00 in1015.9 mb 0.00 in0.0 mm 0.00 in0.0 mm 0.00 in0.0 mm
12:20 AM 72.4°F22.4°C 56.3°F13.5°C 57% 2.1 mph SSW3.4 kmh SSW 6.0 mph9.7 kmh 30.00 in1015.9 mb 0.00 in0.0 mm 0.00 in0.0 mm 0.00 in0.0 mm
12:00 AM 71.9°F22.2°C 56.3°F13.5°C 58% 2.0 mph SW3.2 kmh SW 4.0 mph6.4 kmh 30.00 in1015.9 mb 0.00 in0.0 mm 0.00 in0.0 mm 0.00 in0.0 mm